관리자sep글쓰기
 
툴바 보기

notice

categories

FEZDream (84)
Comapany Intro & Info (8)
Wall-Papers (1)
B777 (3)
B767 (8)
B757 (1)
B747 (15)
B737 (7)
A340 (2)
A330 (8)
A318,319,320,321 (2)
MD11 (7)
Millitary Flights (1)
Scnery Informations (1)
FLYing School Course (2)
Cross-Country with FEZ (5)
Air Works (10)
School Infotmations (2)
FEZDream Pilots Rest Area (0)
Other Games. (1)

recent posts

recent comments

recent trackbacks

보조윈도우 감추기

links



Total : 21,078   |    Today : 1   |    Yesterday : 6

      FEZDream :: Orient eXtreme Flight Club  rss  Skin by ncloud, Modified by FEZDream
보조윈도우 보기/감추기

정말 오랫만에 비행을 접했습니다.

그동안 감을 다 잃어버렸는지...몇일간 개인적으로 훈련을 하기도 했습니다..만;

아직도 미숙하고 어색하기만 합니다...

 

자....

 

 

 

오늘은.....일본 본토의 루트를 잡아봤습니다...

 

Route :  DCT KZE Y50 GOTEN Y54 KOHWA Y544 SINGU DCT       281.5nm

Current weather : RJAA 240900Z 21012KT 9999 FEW030 BKN/// 21/13 Q1014 NOSIG

                         RJBB 240900Z 22014KT 9999 FEW020 BKN/// 21/16 Q1017 NOSIG

 

항로를 편안하게 편집 가능하게 해주는 Free 사이트 (http://skyvector.com/) 를 이용하시면..보다 편리하고 자세하게 루트를 수정/편집하실 수 있습니다..

 

승객 251명이 나리타에서 간사이로....도쿄에서 오사카로....

 

 

커더링차가 3대나 지원이되어 기내에 필요한 물건을 넣어주네요...화물칸 역시;;

 

 

연료차량도 오구요...

 

 

똥간 서비스해주는 차량도...자...이제 슬슬 출발준비를 해볼까용....

17번 주기장에....주차중에 있습니다...탑승이 시작되었네요;;

 

 

 

자...오랫만에 MD11 한번 끌어봅니다...준비해야되는게 많네요....정신없듯;;

 

 

우선 세팅하면서......클리런스 받아놓구요.....;

 

 

 

저희가 있는쪽이....16R/34L쪽과 가까우니....34L를 받아 이륙할 가능성이 99% 이네요..;;

 

 

 

캐더링 자동차들도 모두 빠지고.....토잉카만 오면 될듯합니다..;;

 

 

34L로 이륙하여 SID는 BAY3로 해서 KZE VOR로 빠져 Y50 항로로 도쿄지역을 빠져 나가겠습니다...

 

 

 

 

 자....이제 후진해볼까요....

 

 

 

엔진 3발 모두 작동시키구요...컨피그에서 발란스 트림 맞쳐주고.. 

 

 

 

 오토브레이크....T.O에 위치시키고...플랩트림 22세팅하구요...

 자....활주로 위로 들어서기전.....앞선 772가 아직 활주로상에 있어서 대기중....

 

 

 

 자....라인업하고...이륙지시받고...떠 봅니다..;

 

 

 

생각보다 가뿐하게 땡겨봅니다....앞서 도착한 뉴질랜드산 772...오클랜드에서 온 듯 합니다...

 

 

 

안전고도랑...정상적인 상승으로 인해....바퀴넣고...플랩 접고.... 

 

 

 

 나리타를 뒤로.....도쿄! 나요나라....짜이찌엔....굿바이;;

 

 

 

커피 한잔 마시고 와보니...순항고도 FL340까지 올라왔네요.....곧 내려가야되는데;;;ㅠㅠ 

 

 

 

음....오사카쪽의 날씨가 안좋아진다는 정보가 있었지만...그래도...뭐 서두른다고 피할 수 있는것은 아닌듯...;

 

 

 

 자...올라오자 내려갑니다..

 

 

 

추부 공항(RJGG)이 밑에......아름답네요;;^^

 

 

구름이 몰려들기 시작하네요... 

 

 

 

큐물러스 림버스의 구름이...아마 곧 비가 쏟아지려는 듯 합니다....순간 돌풍과 범핑이....기체가 흔들거리네요...

 

 

 

 자....잊 도착할 때 인가요...5,000FT 이하로 접어들었네요....착륙준비합니다..

 

혹시나...날씨와 시정의 영향으로 착륙을 못 한다면....일단 시도를 해보고 안되면...기상상황이 그나마 좋은 오사카(RJOO)로 회항 하도록 하겠습니다..

 

 

 

 

 공항의 진입등이 보입니다...

 

 

 

 400ft 접근이구요....비가 내리 쏟는군요...;;

 

 

 

 그래도...시야와 바람의 문제는 없습니다...점점 더 기상이 악화되는데요...

 

 

 

 도착하고나니....콱....쏟아지네요..;

 

 

 

 2시간가량 달렷 도착했습니다...소나기인데..꽤 굵게 쏟아지네요..

 

 

 

 게이트가 아닌 스테어 차량이 왔습니다..어느 덧 비는 그치고 햇살이...;

 

 

 

 

오랫만에 접해본 비행...

아름다운 비행이였습니다..;

또 언제가 될지 모르지만, 다음 비행 후 새로운 일지로 올께요...^^

감사합니다..

 

 

저작자 표시 비영리 변경 금지
신고

티스토리 툴바